Terminal Aerodrome Forecast
Issued by NWS

Home | Current Version | Previous Version | Graphics & Text | Print | Product List | Glossary On
Versions: 1 2 3 4 5 6 7 8 9 10 11 12
689
FTUS45 KGGW 291720
TAFSDY
TAF
KSDY 291720Z 2918/3018 15007KT P6SM SKC
     FM292100 14011G22KT P6SM SKC
     FM300300 13007KT P6SM SCT200
     FM301200 13005KT P6SM BKN110=

USA.gov is the U.S. government's official web portal to all federal, state and local government web resources and services.